Time;durP1;ratioP1;P1;durP2;ratioP2;P2;SDS_P1;SDS_P2;PMS_P1;PMS_P2;Temp;Humidity;BMP_temperature;BMP_pressure;BME280_temperature;BME280_humidity;BME280_pressure;Samples;Min_cycle;Max_cycle;Signal;HPM_P1;HPM_P2
2024/01/23 00:02:22;;;;;;;1999.90;999.90;;;6.50;99.90;;;;;;4957727;28;20040;-85
2024/01/23 00:04:47;;;;;;;1999.90;999.90;;;6.50;99.90;;;;;;4958010;28;20126;-84
2024/01/23 00:07:13;;;;;;;1999.90;999.90;;;6.60;99.90;;;;;;4957721;28;20136;-84
2024/01/23 00:09:39;;;;;;;1999.90;999.90;;;6.60;99.90;;;;;;4957791;28;20035;-84
2024/01/23 00:12:07;;;;;;;1999.90;999.90;;;6.60;99.90;;;;;;4959203;28;20118;-84
2024/01/23 00:14:33;;;;;;;1999.90;999.90;;;6.50;99.90;;;;;;4957834;28;20482;-84
2024/01/23 00:16:59;;;;;;;1999.90;999.90;;;6.50;99.90;;;;;;4957038;28;20059;-85
2024/01/23 00:19:24;;;;;;;1999.90;999.90;;;6.50;99.90;;;;;;4959005;28;20505;-85
2024/01/23 00:21:50;;;;;;;1999.90;999.90;;;6.50;99.90;;;;;;4957413;28;20167;-85
2024/01/23 00:24:15;;;;;;;1999.90;999.90;;;6.40;99.90;;;;;;4959461;28;20115;-84
2024/01/23 00:26:41;;;;;;;1999.90;999.90;;;6.30;99.90;;;;;;4958762;28;20027;-84
2024/01/23 00:29:07;;;;;;;1999.90;999.90;;;6.30;99.90;;;;;;4957665;28;20062;-85
2024/01/23 00:31:34;;;;;;;1999.90;999.90;;;6.30;99.90;;;;;;4957388;28;20114;-84
2024/01/23 00:33:59;;;;;;;1999.90;999.90;;;6.20;99.90;;;;;;4958720;28;20484;-84
2024/01/23 00:36:25;;;;;;;1999.90;999.90;;;6.20;99.90;;;;;;4956890;28;20040;-85
2024/01/23 00:38:51;;;;;;;1999.90;999.90;;;6.30;99.90;;;;;;4957230;28;20086;-85
2024/01/23 00:41:16;;;;;;;1999.90;999.90;;;6.30;99.90;;;;;;4956943;28;20036;-85
2024/01/23 00:43:42;;;;;;;1999.90;999.90;;;6.30;99.90;;;;;;4958907;28;20123;-84
2024/01/23 00:46:08;;;;;;;1999.90;999.90;;;6.30;99.90;;;;;;4956782;28;20032;-84
2024/01/23 00:48:33;;;;;;;1999.90;999.90;;;6.30;99.90;;;;;;4957338;28;20039;-84
2024/01/23 00:50:59;;;;;;;1999.90;999.90;;;6.40;99.90;;;;;;4956971;28;20039;-85
2024/01/23 00:53:25;;;;;;;1999.90;999.90;;;6.50;99.90;;;;;;4957286;28;20035;-84
2024/01/23 00:55:50;;;;;;;1999.90;999.90;;;6.60;99.90;;;;;;4956769;28;20136;-85
2024/01/23 00:58:16;;;;;;;1999.90;999.90;;;6.60;99.90;;;;;;4957147;28;20039;-84
2024/01/23 01:00:44;;;;;;;1999.90;999.90;;;6.60;99.90;;;;;;4958136;28;20035;-85
2024/01/23 01:03:13;;;;;;;1999.90;999.90;;;6.60;99.90;;;;;;4958169;28;20039;-84
2024/01/23 01:05:39;;;;;;;1999.90;999.90;;;6.60;99.90;;;;;;4958018;28;20039;-85
2024/01/23 01:08:05;;;;;;;1999.90;999.90;;;6.60;99.90;;;;;;4958293;28;20031;-85
2024/01/23 01:10:31;;;;;;;1999.90;999.90;;;6.60;99.90;;;;;;4957049;28;20032;-85
2024/01/23 01:12:56;;;;;;;1999.90;999.90;;;6.60;99.90;;;;;;4956734;28;20518;-85
2024/01/23 01:15:22;;;;;;;1999.90;999.90;;;6.60;99.90;;;;;;4957972;28;20593;-84
2024/01/23 01:17:48;;;;;;;1999.90;999.90;;;6.60;99.90;;;;;;4957743;28;20127;-84
2024/01/23 01:20:13;;;;;;;1999.90;999.90;;;6.60;99.90;;;;;;4956648;28;20044;-84
2024/01/23 01:22:39;;;;;;;1999.90;999.90;;;6.60;99.90;;;;;;4956547;28;20028;-84
2024/01/23 01:25:05;;;;;;;1999.90;999.90;;;6.60;99.90;;;;;;4956686;28;20035;-84
2024/01/23 01:27:31;;;;;;;1999.90;999.90;;;6.50;99.90;;;;;;4958071;28;20456;-84
2024/01/23 01:29:56;;;;;;;1999.90;999.90;;;6.50;99.90;;;;;;4958248;28;20047;-84
2024/01/23 01:32:22;;;;;;;1999.90;999.90;;;6.60;99.90;;;;;;4956389;28;20031;-84
2024/01/23 01:34:47;;;;;;;1999.90;999.90;;;6.50;99.90;;;;;;4957876;28;20044;-85
2024/01/23 01:37:13;;;;;;;1999.90;999.90;;;6.50;99.90;;;;;;4996528;23;20123;-84
2024/01/23 01:39:39;;;;;;;1999.90;999.90;;;6.50;99.90;;;;;;4977940;28;20043;-83
2024/01/23 01:42:04;;;;;;;1999.90;999.90;;;6.50;99.90;;;;;;4977465;28;20040;-83
2024/01/23 01:44:32;;;;;;;1999.90;999.90;;;6.60;99.90;;;;;;4979169;28;20035;-83
2024/01/23 01:46:58;;;;;;;1999.90;999.90;;;6.50;99.90;;;;;;4977539;28;20894;-83
2024/01/23 01:49:25;;;;;;;1999.90;999.90;;;6.50;99.90;;;;;;4979335;28;20147;-83
2024/01/23 01:51:52;;;;;;;1999.90;999.90;;;6.50;99.90;;;;;;4979064;28;20787;-84
2024/01/23 01:54:20;;;;;;;1999.90;999.90;;;6.40;99.90;;;;;;4979288;28;20047;-83
2024/01/23 01:56:46;;;;;;;1999.90;999.90;;;6.30;99.90;;;;;;4977381;28;20031;-84
2024/01/23 01:59:12;;;;;;;1999.90;999.90;;;6.20;99.90;;;;;;4978368;28;20028;-83
2024/01/23 02:01:39;;;;;;;1999.90;999.90;;;6.10;99.90;;;;;;4977596;28;20038;-84
2024/01/23 02:04:05;;;;;;;1999.90;999.90;;;6.10;99.90;;;;;;4979336;28;20031;-84
2024/01/23 02:06:32;;;;;;;1999.90;999.90;;;5.90;99.90;;;;;;4977468;28;20489;-83
2024/01/23 02:08:57;;;;;;;1999.90;999.90;;;5.90;99.90;;;;;;4976994;28;20501;-83
2024/01/23 02:11:23;;;;;;;1999.90;999.90;;;5.80;99.90;;;;;;4977418;28;20039;-84
2024/01/23 02:13:49;;;;;;;1999.90;999.90;;;5.70;99.90;;;;;;4977730;28;20086;-83
2024/01/23 02:16:14;;;;;;;1999.90;999.90;;;5.60;99.90;;;;;;4978924;28;20486;-84
2024/01/23 02:18:40;;;;;;;1999.90;999.90;;;5.60;99.90;;;;;;4979001;28;20085;-83
2024/01/23 02:21:07;;;;;;;1999.90;999.90;;;5.60;99.90;;;;;;4977152;28;20039;-84
2024/01/23 02:23:33;;;;;;;1999.90;999.90;;;5.60;99.90;;;;;;4977532;28;20512;-84
2024/01/23 02:25:58;;;;;;;1999.90;999.90;;;5.60;99.90;;;;;;4979072;28;20066;-84
2024/01/23 02:28:24;;;;;;;1999.90;999.90;;;5.70;99.90;;;;;;4977443;28;20039;-84
2024/01/23 02:30:50;;;;;;;1999.90;999.90;;;5.70;99.90;;;;;;4979303;28;20031;-83
2024/01/23 02:33:15;;;;;;;1999.90;999.90;;;5.70;99.90;;;;;;4977614;28;20456;-83
2024/01/23 02:35:41;;;;;;;1999.90;999.90;;;5.80;99.90;;;;;;4975333;28;20038;-84
2024/01/23 02:38:10;;;;;;;1999.90;999.90;;;5.70;99.90;;;;;;4978424;28;20556;-83
2024/01/23 02:40:35;;;;;;;1999.90;999.90;;;5.80;99.90;;;;;;4976710;28;20031;-82
2024/01/23 02:43:01;;;;;;;1999.90;999.90;;;5.80;99.90;;;;;;4976633;28;20042;-83
2024/01/23 02:45:27;;;;;;;1999.90;999.90;;;5.80;99.90;;;;;;4977426;28;20090;-83
2024/01/23 02:47:53;;;;;;;1999.90;999.90;;;5.80;99.90;;;;;;4976796;28;20039;-83
2024/01/23 02:50:19;;;;;;;1999.90;999.90;;;5.80;99.90;;;;;;4978542;28;20051;-82
2024/01/23 02:52:44;;;;;;;1999.90;999.90;;;5.80;99.90;;;;;;4978176;28;20035;-82
2024/01/23 02:55:10;;;;;;;1999.90;999.90;;;5.90;99.90;;;;;;4977215;28;20042;-84
2024/01/23 02:57:35;;;;;;;1999.90;999.90;;;6.00;99.90;;;;;;4976792;28;20042;-84
2024/01/23 03:00:01;;;;;;;1999.90;999.90;;;6.00;99.90;;;;;;4976986;28;20118;-84
2024/01/23 03:02:27;;;;;;;1999.90;999.90;;;6.00;99.90;;;;;;4977029;28;20504;-83
2024/01/23 03:04:52;;;;;;;1999.90;999.90;;;6.00;99.90;;;;;;4977466;28;20039;-83
2024/01/23 03:07:18;;;;;;;1999.90;999.90;;;6.00;99.90;;;;;;4977247;28;20039;-83
2024/01/23 03:09:44;;;;;;;1999.90;999.90;;;6.00;99.90;;;;;;4979011;28;20042;-83
2024/01/23 03:12:21;;;;;;;1999.90;999.90;;;6.00;99.90;;;;;;4976882;28;20496;-83
2024/01/23 03:14:47;;;;;;;1999.90;999.90;;;6.00;99.90;;;;;;4977093;28;20596;-83
2024/01/23 03:17:14;;;;;;;1999.90;999.90;;;6.00;99.90;;;;;;4977536;28;20047;-83
2024/01/23 03:19:41;;;;;;;1999.90;999.90;;;6.30;99.90;;;;;;4979598;28;20090;-83
2024/01/23 03:22:08;;;;;;;1999.90;999.90;;;6.00;99.90;;;;;;4979033;28;20031;-84
2024/01/23 03:24:37;;;;;;;1999.90;999.90;;;6.00;99.90;;;;;;4977333;28;20039;-84
2024/01/23 03:27:04;;;;;;;1999.90;999.90;;;5.90;99.90;;;;;;4980878;28;20054;-83
2024/01/23 03:29:39;;;;;;;1999.90;999.90;;;5.90;99.90;;;;;;4981172;28;20043;-84
2024/01/23 03:32:05;;;;;;;1999.90;999.90;;;5.90;99.90;;;;;;4983983;28;20034;-84
2024/01/23 03:34:32;;;;;;;1999.90;999.90;;;6.00;99.90;;;;;;4981105;28;20396;-84
2024/01/23 03:37:00;;;;;;;1999.90;999.90;;;5.90;99.90;;;;;;4978725;28;20122;-84
2024/01/23 03:39:26;;;;;;;1999.90;999.90;;;5.90;99.90;;;;;;4977757;28;20039;-83
2024/01/23 03:41:52;;;;;;;1999.90;999.90;;;5.90;99.90;;;;;;4977280;28;20042;-84
2024/01/23 03:44:18;;;;;;;1999.90;999.90;;;5.90;99.90;;;;;;4979111;28;20035;-84
2024/01/23 03:46:43;;;;;;;1999.90;999.90;;;5.90;99.90;;;;;;4977310;28;20082;-83
2024/01/23 03:49:09;;;;;;;1999.90;999.90;;;5.90;99.90;;;;;;4978619;28;20058;-83
2024/01/23 03:51:34;;;;;;;1999.90;999.90;;;6.00;99.90;;;;;;4978570;28;20477;-84
2024/01/23 03:54:00;;;;;;;1999.90;999.90;;;5.90;99.90;;;;;;4978931;28;20079;-83
2024/01/23 03:56:25;;;;;;;1999.90;999.90;;;5.80;99.90;;;;;;4977257;28;20524;-83
2024/01/23 03:58:51;;;;;;;1999.90;999.90;;;5.70;99.90;;;;;;4977129;28;20516;-83
2024/01/23 04:01:16;;;;;;;1999.90;999.90;;;5.80;99.90;;;;;;4977267;28;20282;-84
2024/01/23 04:03:42;;;;;;;1999.90;999.90;;;5.80;99.90;;;;;;4978747;28;20095;-83
2024/01/23 04:06:07;;;;;;;1999.90;999.90;;;5.80;99.90;;;;;;4978327;28;20035;-83
2024/01/23 04:08:33;;;;;;;1999.90;999.90;;;5.90;99.90;;;;;;4977275;28;20122;-83
2024/01/23 04:10:58;;;;;;;1999.90;999.90;;;6.00;99.90;;;;;;4977114;28;20070;-84
2024/01/23 04:13:24;;;;;;;1999.90;999.90;;;6.00;99.90;;;;;;4976913;28;20489;-83
2024/01/23 04:15:49;;;;;;;1999.90;999.90;;;6.10;99.90;;;;;;4978970;28;20035;-83
2024/01/23 04:18:16;;;;;;;1999.90;999.90;;;6.10;99.90;;;;;;4978644;28;20039;-82
2024/01/23 04:20:41;;;;;;;1999.90;999.90;;;6.10;99.90;;;;;;4979169;28;20027;-83
2024/01/23 04:23:07;;;;;;;1999.90;999.90;;;6.20;99.90;;;;;;4977632;28;20382;-83
2024/01/23 04:25:32;;;;;;;1999.90;999.90;;;6.20;99.90;;;;;;4977140;28;20098;-82
2024/01/23 04:27:58;;;;;;;1999.90;999.90;;;6.20;99.90;;;;;;4978916;28;20047;-84
2024/01/23 04:30:25;;;;;;;1999.90;999.90;;;6.30;99.90;;;;;;4977290;28;20478;-83
2024/01/23 04:32:50;;;;;;;1999.90;999.90;;;6.20;99.90;;;;;;4977704;28;20062;-82
2024/01/23 04:35:16;;;;;;;1999.90;999.90;;;6.20;99.90;;;;;;4977643;28;20489;-83
2024/01/23 04:37:41;;;;;;;1999.90;999.90;;;6.10;99.90;;;;;;4976327;28;20039;-84
2024/01/23 04:40:09;;;;;;;1999.90;999.90;;;6.00;99.90;;;;;;4979391;28;20508;-83
2024/01/23 04:42:35;;;;;;;1999.90;999.90;;;6.00;99.90;;;;;;4977607;28;20031;-83
2024/01/23 04:45:01;;;;;;;1999.90;999.90;;;6.00;99.90;;;;;;4978641;28;20039;-83
2024/01/23 04:47:26;;;;;;;1999.90;999.90;;;6.00;99.90;;;;;;4977165;28;20118;-83
2024/01/23 04:49:52;;;;;;;1999.90;999.90;;;5.90;99.90;;;;;;4978867;28;20536;-83
2024/01/23 04:52:18;;;;;;;1999.90;999.90;;;5.80;99.90;;;;;;4977393;28;20038;-83
2024/01/23 04:54:44;;;;;;;1999.90;999.90;;;5.70;99.90;;;;;;4978035;28;20043;-82
2024/01/23 04:57:10;;;;;;;1999.90;999.90;;;5.70;99.90;;;;;;4977655;28;20125;-83
2024/01/23 04:59:35;;;;;;;1999.90;999.90;;;5.70;99.90;;;;;;4977910;28;20050;-83
2024/01/23 05:02:01;;;;;;;1999.90;999.90;;;5.80;99.90;;;;;;4977686;28;20393;-84
2024/01/23 05:04:27;;;;;;;1999.90;999.90;;;5.70;99.90;;;;;;4977841;28;20275;-84
2024/01/23 05:06:52;;;;;;;1999.90;999.90;;;5.70;99.90;;;;;;4977780;28;20039;-84
2024/01/23 05:09:19;;;;;;;1999.90;999.90;;;5.70;99.90;;;;;;4977614;28;20382;-83
2024/01/23 05:11:46;;;;;;;1999.90;999.90;;;5.60;99.90;;;;;;4977806;28;20028;-84
2024/01/23 05:14:12;;;;;;;1999.90;999.90;;;5.60;99.90;;;;;;4978163;28;20062;-83
2024/01/23 05:16:38;;;;;;;1999.90;999.90;;;5.60;99.90;;;;;;4979327;28;20515;-83
2024/01/23 05:19:03;;;;;;;1999.90;999.90;;;5.60;99.90;;;;;;4978237;28;20047;-83
2024/01/23 05:21:29;;;;;;;1999.90;999.90;;;5.50;99.90;;;;;;4980077;28;20043;-83
2024/01/23 05:23:55;;;;;;;1999.90;999.90;;;5.50;99.90;;;;;;4980653;28;20039;-83
2024/01/23 05:26:20;;;;;;;1999.90;999.90;;;5.50;99.90;;;;;;4978879;28;20086;-83
2024/01/23 05:28:46;;;;;;;1999.90;999.90;;;5.50;99.90;;;;;;4978916;28;20500;-84
2024/01/23 05:31:11;;;;;;;1999.90;999.90;;;5.60;99.90;;;;;;4980304;28;20073;-83
2024/01/23 05:33:37;;;;;;;1999.90;999.90;;;5.50;99.90;;;;;;4979128;28;20062;-84
2024/01/23 05:36:02;;;;;;;1999.90;999.90;;;5.60;99.90;;;;;;4978856;28;20126;-83
2024/01/23 05:38:28;;;;;;;1999.90;999.90;;;5.50;99.90;;;;;;4982837;28;20127;-83
2024/01/23 05:40:54;;;;;;;1999.90;999.90;;;5.50;99.90;;;;;;4978953;28;20043;-83
2024/01/23 05:43:19;;;;;;;1999.90;999.90;;;5.50;99.90;;;;;;4975674;28;20437;-83
2024/01/23 05:45:45;;;;;;;1999.90;999.90;;;5.50;99.90;;;;;;4975986;28;20485;-83
2024/01/23 05:48:10;;;;;;;1999.90;999.90;;;5.40;99.90;;;;;;4977260;28;20035;-83
2024/01/23 05:50:36;;;;;;;1999.90;999.90;;;5.30;99.90;;;;;;4975568;28;20150;-83
2024/01/23 05:53:02;;;;;;;1999.90;999.90;;;5.20;99.90;;;;;;4975546;28;20047;-83
2024/01/23 05:55:27;;;;;;;1999.90;999.90;;;5.20;99.90;;;;;;4975421;28;20405;-83
2024/01/23 05:57:53;;;;;;;1999.90;999.90;;;5.10;99.90;;;;;;4977356;28;20043;-83
2024/01/23 06:00:19;;;;;;;1999.90;999.90;;;5.10;99.90;;;;;;4975653;28;20034;-83
2024/01/23 06:02:44;;;;;;;1999.90;999.90;;;5.00;99.90;;;;;;4975592;28;20050;-83
2024/01/23 06:05:10;;;;;;;1999.90;999.90;;;5.10;99.90;;;;;;4975618;28;20035;-83
2024/01/23 06:07:40;;;;;;;1999.90;999.90;;;5.10;99.90;;;;;;4975577;28;20023;-83
2024/01/23 06:10:07;;;;;;;1999.90;999.90;;;5.20;99.90;;;;;;4975805;28;20039;-83
2024/01/23 06:12:32;;;;;;;1999.90;999.90;;;5.10;99.90;;;;;;4975599;28;20023;-83
2024/01/23 06:14:58;;;;;;;1999.90;999.90;;;5.00;99.90;;;;;;4977387;28;20413;-83
2024/01/23 06:17:23;;;;;;;1999.90;999.90;;;5.00;99.90;;;;;;4975465;28;20034;-84
2024/01/23 06:19:49;;;;;;;1999.90;999.90;;;4.90;99.90;;;;;;4977264;28;20118;-83
2024/01/23 06:22:14;;;;;;;1999.90;999.90;;;4.90;99.90;;;;;;4975061;28;20188;-84
2024/01/23 06:24:40;;;;;;;1999.90;999.90;;;4.80;99.90;;;;;;4975710;28;20077;-84
2024/01/23 06:27:05;;;;;;;1999.90;999.90;;;4.90;99.90;;;;;;4958649;28;20040;-83
2024/01/23 06:29:31;;;;;;;1999.90;999.90;;;4.90;99.90;;;;;;4960257;28;20036;-83
2024/01/23 06:31:58;;;;;;;1999.90;999.90;;;4.90;99.90;;;;;;4959882;28;20040;-87
2024/01/23 06:34:26;;;;;;;1999.90;999.90;;;5.00;99.90;;;;;;4959515;28;20039;-82
2024/01/23 06:36:52;;;;;;;1999.90;999.90;;;4.80;99.90;;;;;;4960141;28;20036;-83
2024/01/23 06:39:17;;;;;;;1999.90;999.90;;;4.90;99.90;;;;;;4958567;28;20137;-83
2024/01/23 06:41:44;;;;;;;1999.90;999.90;;;5.00;99.90;;;;;;4957533;28;20039;-83
2024/01/23 06:44:10;;;;;;;1999.90;999.90;;;5.00;99.90;;;;;;4957615;28;20040;-83
2024/01/23 06:46:35;;;;;;;1999.90;999.90;;;5.10;99.90;;;;;;4957950;28;20032;-83
2024/01/23 06:49:01;;;;;;;1999.90;999.90;;;5.10;99.90;;;;;;4958386;28;20031;-83
2024/01/23 06:51:28;;;;;;;1999.90;999.90;;;5.10;99.90;;;;;;4959308;28;20032;-83
2024/01/23 06:53:55;;;;;;;1999.90;999.90;;;5.00;99.90;;;;;;4957728;28;20035;-83
2024/01/23 06:56:20;;;;;;;1999.90;999.90;;;4.90;99.90;;;;;;4958496;28;20036;-83
2024/01/23 06:58:46;;;;;;;1999.90;999.90;;;4.80;99.90;;;;;;4958819;28;20039;-83
2024/01/23 07:01:12;;;;;;;1999.90;999.90;;;4.90;99.90;;;;;;4961710;28;20126;-83
2024/01/23 07:03:38;;;;;;;1999.90;999.90;;;4.80;99.90;;;;;;4961441;28;20119;-81
2024/01/23 07:06:04;;;;;;;1999.90;999.90;;;4.80;99.90;;;;;;4961730;28;20054;-81
2024/01/23 07:08:29;;;;;;;1999.90;999.90;;;4.90;99.90;;;;;;4964052;28;20031;-81
2024/01/23 07:10:55;;;;;;;1999.90;999.90;;;4.90;99.90;;;;;;4962570;28;20777;-82
2024/01/23 07:13:20;;;;;;;1999.90;999.90;;;4.90;99.90;;;;;;4965379;28;20059;-82
2024/01/23 07:15:46;;;;;;;1999.90;999.90;;;4.80;99.90;;;;;;4963187;28;20067;-82
2024/01/23 07:18:12;;;;;;;1999.90;999.90;;;4.70;99.90;;;;;;4965196;28;20067;-83
2024/01/23 07:20:37;;;;;;;1999.90;999.90;;;4.70;99.90;;;;;;4961448;28;20053;-83
2024/01/23 07:23:03;;;;;;;1999.90;999.90;;;4.60;99.90;;;;;;4960381;28;20110;-83
2024/01/23 07:25:28;;;;;;;1999.90;999.90;;;4.60;99.90;;;;;;4971480;28;20043;-82
2024/01/23 07:27:54;;;;;;;1999.90;999.90;;;4.60;99.90;;;;;;4981951;28;20099;-81
2024/01/23 07:30:20;;;;;;;1999.90;999.90;;;4.50;99.90;;;;;;4983362;28;20043;-81
2024/01/23 07:32:45;;;;;;;1999.90;999.90;;;4.60;99.90;;;;;;4981509;28;20038;-82
2024/01/23 07:35:11;;;;;;;1999.90;999.90;;;4.60;99.90;;;;;;4982397;28;20485;-82
2024/01/23 07:37:37;;;;;;;1999.90;999.90;;;4.70;99.90;;;;;;4981598;28;20071;-79
2024/01/23 07:40:03;;;;;;;1999.90;999.90;;;4.70;99.90;;;;;;4982709;28;20067;-81
2024/01/23 07:42:28;;;;;;;1999.90;999.90;;;4.60;99.90;;;;;;4985687;28;21162;-82
2024/01/23 07:44:56;;;;;;;1999.90;999.90;;;4.60;99.90;;;;;;4989563;28;20035;-83
2024/01/23 07:47:22;;;;;;;1999.90;999.90;;;4.60;99.90;;;;;;4982770;28;20099;-84
2024/01/23 07:49:48;;;;;;;1999.90;999.90;;;4.50;99.90;;;;;;4979242;28;20494;-84
2024/01/23 07:52:15;;;;;;;1999.90;999.90;;;4.60;99.90;;;;;;4978776;28;20378;-84
2024/01/23 07:54:42;;;;;;;1999.90;999.90;;;4.50;99.90;;;;;;4979766;28;20118;-84
2024/01/23 07:57:07;;;;;;;1999.90;999.90;;;4.60;99.90;;;;;;4979968;28;20035;-84
2024/01/23 07:59:33;;;;;;;1999.90;999.90;;;4.50;99.90;;;;;;4979058;28;20039;-83
2024/01/23 08:01:58;;;;;;;1999.90;999.90;;;4.60;99.90;;;;;;4977272;28;20468;-84
2024/01/23 08:04:24;;;;;;;1999.90;999.90;;;4.70;99.90;;;;;;4978737;28;20689;-82
2024/01/23 08:06:49;;;;;;;1999.90;999.90;;;4.80;99.90;;;;;;4977677;28;20118;-85
2024/01/23 08:09:15;;;;;;;1999.90;999.90;;;4.80;99.90;;;;;;4976904;28;20474;-82
2024/01/23 08:11:40;;;;;;;1999.90;999.90;;;4.80;99.90;;;;;;4975817;28;20035;-82
2024/01/23 08:14:06;;;;;;;1999.90;999.90;;;4.90;99.90;;;;;;4975394;28;20114;-82
2024/01/23 08:16:31;;;;;;;1999.90;999.90;;;4.90;99.90;;;;;;4976776;28;20032;-83
2024/01/23 08:19:01;;;;;;;1999.90;999.90;;;5.00;99.90;;;;;;4977368;28;20050;-83
2024/01/23 08:21:27;;;;;;;1999.90;999.90;;;5.10;99.90;;;;;;4977003;28;20032;-84
2024/01/23 08:23:53;;;;;;;1999.90;999.90;;;5.20;99.90;;;;;;4978716;28;20031;-83
2024/01/23 08:26:18;;;;;;;1999.90;999.90;;;5.30;99.90;;;;;;4979555;28;20047;-83
2024/01/23 08:28:44;;;;;;;1999.90;999.90;;;5.40;99.90;;;;;;4977980;28;20039;-84
2024/01/23 08:31:09;;;;;;;1999.90;999.90;;;5.60;99.90;;;;;;4979212;28;20086;-83
2024/01/23 08:33:35;;;;;;;1999.90;999.90;;;5.80;99.90;;;;;;4979468;28;20039;-83
2024/01/23 08:36:03;;;;;;;1999.90;999.90;;;6.00;99.90;;;;;;4978735;28;20485;-83
2024/01/23 08:38:29;;;;;;;1999.90;999.90;;;6.20;99.90;;;;;;4980156;28;20047;-83
2024/01/23 08:40:55;;;;;;;1999.90;999.90;;;6.30;99.90;;;;;;4979156;28;20436;-83
2024/01/23 08:43:20;;;;;;;1999.90;999.90;;;6.40;99.90;;;;;;4978093;28;20036;-84
2024/01/23 08:45:46;;;;;;;1999.90;999.90;;;6.40;99.90;;;;;;4980372;28;20035;-84
2024/01/23 08:48:11;;;;;;;1999.90;999.90;;;6.40;99.90;;;;;;4969687;28;20045;-84
2024/01/23 08:50:37;;;;;;;1999.90;999.90;;;6.80;99.90;;;;;;4980025;28;20118;-84
2024/01/23 08:53:03;;;;;;;1999.90;999.90;;;6.70;99.90;;;;;;4976791;28;20643;-83
2024/01/23 08:55:29;;;;;;;1999.90;999.90;;;6.90;99.90;;;;;;4976665;28;20035;-82
2024/01/23 08:57:55;;;;;;;1999.90;999.90;;;7.00;99.90;;;;;;4976212;28;20035;-82
2024/01/23 09:00:21;;;;;;;1999.90;999.90;;;7.30;99.90;;;;;;4976414;28;20043;-84
2024/01/23 09:02:47;;;;;;;1999.90;999.90;;;7.10;99.90;;;;;;4975459;28;20067;-83
2024/01/23 09:05:12;;;;;;;1999.90;999.90;;;7.10;99.90;;;;;;4977530;28;20040;-83
2024/01/23 09:07:38;;;;;;;1999.90;999.90;;;7.10;99.90;;;;;;4975916;28;20545;-83
2024/01/23 09:10:04;;;;;;;1999.90;999.90;;;7.10;99.90;;;;;;4974697;28;20036;-83
2024/01/23 09:12:33;;;;;;;1999.90;999.90;;;7.10;99.90;;;;;;4976246;28;20042;-82
2024/01/23 09:14:59;;;;;;;1999.90;999.90;;;7.00;99.90;;;;;;4976110;28;20035;-83
2024/01/23 09:17:25;;;;;;;1999.90;999.90;;;7.00;99.90;;;;;;4975866;28;20032;-82
2024/01/23 09:19:50;;;;;;;1999.90;999.90;;;7.00;99.90;;;;;;4975745;28;20122;-83
2024/01/23 09:22:16;;;;;;;1999.90;999.90;;;7.00;99.90;;;;;;4974573;28;20107;-83
2024/01/23 09:24:42;;;;;;;1999.90;999.90;;;7.00;99.90;;;;;;4978198;28;20027;-83
2024/01/23 09:27:08;;;;;;;1999.90;999.90;;;6.90;99.90;;;;;;4976235;28;20082;-83
2024/01/23 09:29:33;;;;;;;1999.90;999.90;;;6.80;99.90;;;;;;4976787;28;20058;-83
2024/01/23 09:31:59;;;;;;;1999.90;999.90;;;6.80;99.90;;;;;;4976469;28;20035;-83
2024/01/23 09:34:25;;;;;;;1999.90;999.90;;;6.80;99.90;;;;;;4978054;28;20032;-83
2024/01/23 09:36:51;;;;;;;1999.90;999.90;;;6.90;99.90;;;;;;4980110;28;20046;-83
2024/01/23 09:39:17;;;;;;;1999.90;999.90;;;6.90;99.90;;;;;;4979473;28;20045;-83
2024/01/23 09:41:50;;;;;;;1999.90;999.90;;;7.00;99.90;;;;;;4977179;28;20039;-82
2024/01/23 09:44:18;;;;;;;1999.90;999.90;;;6.90;99.90;;;;;;4975976;28;20129;-82
2024/01/23 09:46:45;;;;;;;1999.90;999.90;;;6.90;99.90;;;;;;4976723;28;20042;-83
2024/01/23 09:49:11;;;;;;;1999.90;999.90;;;6.90;99.90;;;;;;4978055;28;20035;-83
2024/01/23 09:51:41;;;;;;;1999.90;999.90;;;7.00;99.90;;;;;;4977199;28;20031;-82
2024/01/23 09:54:08;;;;;;;1999.90;999.90;;;7.10;99.90;;;;;;4978093;28;20031;-83
2024/01/23 09:56:34;;;;;;;1999.90;999.90;;;7.10;99.90;;;;;;4978306;28;20480;-83
2024/01/23 09:59:00;;;;;;;1999.90;999.90;;;7.20;99.90;;;;;;4987454;28;20095;-82
2024/01/23 10:01:28;;;;;;;1999.90;999.90;;;7.30;99.90;;;;;;4990497;28;20067;-82
2024/01/23 10:03:56;;;;;;;1999.90;999.90;;;7.40;99.90;;;;;;4977015;28;20027;-82
2024/01/23 10:06:21;;;;;;;1999.90;999.90;;;7.50;99.90;;;;;;4964482;28;20032;-82
2024/01/23 10:08:47;;;;;;;1999.90;999.90;;;7.70;99.90;;;;;;4958365;28;20039;-83
2024/01/23 10:11:12;;;;;;;1999.90;999.90;;;7.80;99.90;;;;;;4956942;28;21055;-83
2024/01/23 10:13:42;;;;;;;1999.90;999.90;;;7.70;99.90;;;;;;4956628;28;20512;-83
2024/01/23 10:16:08;;;;;;;1999.90;999.90;;;7.60;99.90;;;;;;4957196;28;20023;-83
2024/01/23 10:18:33;;;;;;;1999.90;999.90;;;7.40;99.90;;;;;;4956696;28;20044;-82
2024/01/23 10:20:59;;;;;;;1999.90;999.90;;;7.50;99.90;;;;;;4971277;28;20039;-83
2024/01/23 10:23:26;;;;;;;1999.90;999.90;;;7.40;99.90;;;;;;4977191;28;20054;-84
2024/01/23 10:25:54;;;;;;;1999.90;999.90;;;7.40;99.90;;;;;;4978097;28;20036;-83
2024/01/23 10:28:22;;;;;;;1999.90;999.90;;;7.40;99.90;;;;;;4977605;28;20493;-84
2024/01/23 10:30:48;;;;;;;1999.90;999.90;;;7.40;99.90;;;;;;4978025;28;20686;-83
2024/01/23 10:33:14;;;;;;;1999.90;999.90;;;7.40;99.90;;;;;;4976075;28;20539;-83
2024/01/23 10:35:42;;;;;;;1999.90;999.90;;;7.30;99.90;;;;;;4976962;28;20532;-83
2024/01/23 10:38:13;;;;;;;1999.90;999.90;;;7.20;99.90;;;;;;4975126;28;20453;-83
2024/01/23 10:40:39;;;;;;;1999.90;999.90;;;7.10;99.90;;;;;;4976404;28;20082;-83
2024/01/23 10:43:06;;;;;;;1999.90;999.90;;;7.40;99.90;;;;;;4978199;28;20640;-82
2024/01/23 10:45:32;;;;;;;1999.90;999.90;;;7.10;99.90;;;;;;4977270;28;20051;-84
2024/01/23 10:48:00;;;;;;;1999.90;999.90;;;7.00;99.90;;;;;;4974939;28;20031;-83
2024/01/23 10:50:26;;;;;;;1999.90;999.90;;;7.00;99.90;;;;;;4974710;28;20119;-83
2024/01/23 10:52:55;;;;;;;1999.90;999.90;;;6.90;99.90;;;;;;4977226;28;20035;-83
2024/01/23 10:55:24;;;;;;;1999.90;999.90;;;6.90;99.90;;;;;;4975477;28;20042;-84
2024/01/23 10:57:56;;;;;;;1999.90;999.90;;;6.90;99.90;;;;;;4976483;28;20488;-84
2024/01/23 11:00:22;;;;;;;1999.90;999.90;;;6.90;99.90;;;;;;4975809;28;20456;-83
2024/01/23 11:03:04;;;;;;;1999.90;999.90;;;6.90;99.90;;;;;;4976136;28;20497;-83
2024/01/23 11:05:49;;;;;;;1999.90;999.90;;;7.20;99.90;;;;;;4979583;28;20476;-84
2024/01/23 11:08:36;;;;;;;1999.90;999.90;;;7.00;99.90;;;;;;4980048;28;20028;-83
2024/01/23 11:11:32;;;;;;;1999.90;999.90;;;7.10;99.90;;;;;;4979620;28;20027;-85
2024/01/23 11:14:04;;;;;;;1999.90;999.90;;;7.20;99.90;;;;;;4976675;28;20070;-84
2024/01/23 11:16:30;;;;;;;1999.90;999.90;;;7.30;99.90;;;;;;4975711;28;20051;-84
2024/01/23 11:18:55;;;;;;;1999.90;999.90;;;7.30;99.90;;;;;;4961472;28;20070;-83
2024/01/23 11:21:24;;;;;;;1999.90;999.90;;;7.30;99.90;;;;;;4959036;28;20036;-84
2024/01/23 11:23:59;;;;;;;1999.90;999.90;;;7.40;99.90;;;;;;4964158;28;20044;-84
2024/01/23 11:26:26;;;;;;;1999.90;999.90;;;7.40;99.90;;;;;;4975636;28;20154;-84
2024/01/23 11:29:00;;;;;;;1999.90;999.90;;;7.50;99.90;;;;;;4976156;28;20031;-83
2024/01/23 11:31:28;;;;;;;1999.90;999.90;;;7.40;99.90;;;;;;4976610;28;20035;-83
2024/01/23 11:34:12;;;;;;;1999.90;999.90;;;7.40;99.90;;;;;;4976445;28;20130;-85
2024/01/23 11:36:38;;;;;;;1999.90;999.90;;;7.40;99.90;;;;;;4977063;28;43185;-84
2024/01/23 11:39:03;;;;;;;1999.90;999.90;;;7.40;99.90;;;;;;4979561;28;20051;-84
2024/01/23 11:41:29;;;;;;;1999.90;999.90;;;7.40;99.90;;;;;;4976760;28;20038;-84
2024/01/23 11:44:13;;;;;;;1999.90;999.90;;;7.40;99.90;;;;;;4976107;28;20035;-84
2024/01/23 11:46:40;;;;;;;1999.90;999.90;;;7.50;99.90;;;;;;4978726;28;20027;-84
2024/01/23 11:49:06;;;;;;;1999.90;999.90;;;7.60;99.90;;;;;;4980009;28;20035;-83
2024/01/23 11:51:35;;;;;;;1999.90;999.90;;;7.70;99.90;;;;;;4981041;28;20088;-84
2024/01/23 11:54:07;;;;;;;1999.90;999.90;;;7.90;99.90;;;;;;4980446;28;20078;-84
2024/01/23 11:56:33;;;;;;;1999.90;999.90;;;8.20;99.90;;;;;;4981037;28;20382;-84
2024/01/23 11:58:59;;;;;;;1999.90;999.90;;;8.40;99.90;;;;;;4979552;28;20043;-84
2024/01/23 12:01:27;;;;;;;1999.90;999.90;;;8.50;99.90;;;;;;4979583;28;20031;-84
2024/01/23 12:03:52;;;;;;;1999.90;999.90;;;8.50;99.90;;;;;;4979777;28;20916;-88
2024/01/23 12:06:19;;;;;;;1999.90;999.90;;;8.40;99.90;;;;;;4978430;28;20041;-83